createdAt,value
2023-01-23T00:01:34.331Z,5.58
2023-01-23T00:04:01.902Z,5.23
2023-01-23T00:06:29.536Z,5.40
2023-01-23T00:08:57.345Z,5.22
2023-01-23T00:11:25.558Z,5.59
2023-01-23T00:13:53.042Z,4.98
2023-01-23T00:16:21.304Z,5.15
2023-01-23T00:18:50.832Z,5.48
2023-01-23T00:21:18.780Z,5.47
2023-01-23T00:23:46.861Z,5.55
2023-01-23T00:26:15.603Z,5.09
2023-01-23T00:28:43.426Z,5.25
2023-01-23T00:31:12.897Z,5.15
2023-01-23T00:33:40.610Z,5.18
2023-01-23T00:36:09.962Z,5.07
2023-01-23T00:38:37.464Z,5.44
2023-01-23T00:41:05.070Z,5.34
2023-01-23T00:43:32.563Z,5.60
2023-01-23T00:46:00.228Z,4.92
2023-01-23T00:48:27.911Z,5.06
2023-01-23T00:50:55.563Z,5.39
2023-01-23T00:53:24.617Z,5.22
2023-01-23T00:55:53.461Z,5.26
2023-01-23T00:58:20.974Z,5.18
2023-01-23T01:00:48.504Z,4.79
2023-01-23T01:03:16.037Z,5.07
2023-01-23T01:05:43.562Z,5.25
2023-01-23T01:08:11.064Z,5.06
2023-01-23T01:10:41.796Z,5.13
2023-01-23T01:13:09.725Z,4.76
2023-01-23T01:15:37.430Z,5.01
2023-01-23T01:18:05.024Z,4.76
2023-01-23T01:20:32.561Z,4.84
2023-01-23T01:23:00.536Z,5.26
2023-01-23T01:25:28.067Z,5.67
2023-01-23T01:27:57.010Z,5.58
2023-01-23T01:30:25.816Z,5.61
2023-01-23T01:32:53.328Z,5.46
2023-01-23T01:35:21.079Z,5.50
2023-01-23T01:37:48.581Z,5.02
2023-01-23T01:40:16.600Z,5.28
2023-01-23T01:42:44.776Z,5.38
2023-01-23T01:45:30.947Z,5.57
2023-01-23T01:48:00.147Z,5.65
2023-01-23T01:50:27.611Z,5.64
2023-01-23T01:52:55.146Z,5.39
2023-01-23T01:55:22.651Z,5.56
2023-01-23T01:57:54.235Z,5.41
2023-01-23T02:00:22.082Z,5.78
2023-01-23T02:02:50.526Z,4.71
2023-01-23T02:05:20.094Z,5.35
2023-01-23T02:07:48.374Z,4.88
2023-01-23T02:10:16.661Z,4.63
2023-01-23T02:12:46.097Z,4.73
2023-01-23T02:15:13.634Z,4.71
2023-01-23T02:17:41.188Z,4.91
2023-01-23T02:20:10.419Z,4.95
2023-01-23T02:22:41.754Z,5.02
2023-01-23T02:25:10.817Z,5.66
2023-01-23T02:27:39.683Z,5.27
2023-01-23T02:30:08.645Z,5.28
2023-01-23T02:32:36.226Z,5.69
2023-01-23T02:35:06.741Z,5.55
2023-01-23T02:37:35.538Z,5.64
2023-01-23T02:40:03.659Z,5.74
2023-01-23T02:42:31.273Z,5.79
2023-01-23T02:45:00.402Z,5.49
2023-01-23T02:47:29.514Z,5.04
2023-01-23T02:49:57.063Z,4.75
2023-01-23T02:52:24.637Z,5.27
2023-01-23T02:54:52.422Z,5.46
2023-01-23T02:57:19.944Z,5.10
2023-01-23T03:00:04.797Z,5.13
2023-01-23T03:02:33.788Z,5.77
2023-01-23T03:05:01.286Z,5.67
2023-01-23T03:07:28.820Z,5.50
2023-01-23T03:09:56.299Z,5.74
2023-01-23T03:12:23.846Z,5.35
2023-01-23T03:14:54.786Z,5.81
2023-01-23T03:17:22.348Z,5.73
2023-01-23T03:19:51.192Z,5.74
2023-01-23T03:22:18.709Z,5.54
2023-01-23T03:24:46.220Z,5.29
2023-01-23T03:27:13.694Z,5.64
2023-01-23T03:29:58.629Z,5.21
2023-01-23T03:32:26.638Z,5.26
2023-01-23T03:34:55.545Z,5.43
2023-01-23T03:37:23.059Z,5.22
2023-01-23T03:40:08.176Z,4.96
2023-01-23T03:42:35.976Z,4.78
2023-01-23T03:45:03.606Z,4.93
2023-01-23T03:47:31.102Z,4.57
2023-01-23T03:49:59.938Z,4.41
2023-01-23T03:52:27.542Z,4.54
2023-01-23T03:54:55.112Z,4.75
2023-01-23T03:57:22.624Z,4.83
2023-01-23T03:59:50.170Z,4.95
2023-01-23T04:02:17.685Z,4.95
2023-01-23T04:04:45.282Z,5.31
2023-01-23T04:07:14.357Z,5.03
2023-01-23T04:09:41.852Z,5.46
2023-01-23T04:12:09.350Z,4.56
2023-01-23T04:14:37.671Z,4.83
2023-01-23T04:17:05.381Z,5.18
2023-01-23T04:19:32.941Z,4.94
2023-01-23T04:22:00.387Z,4.93
2023-01-23T04:24:29.270Z,4.99
2023-01-23T04:26:57.028Z,4.87
2023-01-23T04:29:24.994Z,4.43
2023-01-23T04:31:52.530Z,4.97
2023-01-23T04:34:20.102Z,5.30
2023-01-23T04:36:47.647Z,5.14
2023-01-23T04:39:15.186Z,4.91
2023-01-23T04:41:44.001Z,4.57
2023-01-23T04:44:24.332Z,5.49
2023-01-23T04:46:52.984Z,5.47
2023-01-23T04:49:20.967Z,5.23
2023-01-23T04:51:48.897Z,5.02
2023-01-23T04:54:16.475Z,4.65
2023-01-23T04:56:45.452Z,4.98
2023-01-23T04:59:13.115Z,4.89
2023-01-23T05:01:40.758Z,5.47
2023-01-23T05:04:08.287Z,5.34
2023-01-23T05:06:35.775Z,5.22
2023-01-23T05:09:03.320Z,5.08
2023-01-23T05:11:31.055Z,4.84
2023-01-23T05:13:59.923Z,4.68
2023-01-23T05:16:27.401Z,4.99
2023-01-23T05:18:55.071Z,4.91
2023-01-23T05:21:22.734Z,4.92
2023-01-23T05:23:50.349Z,5.04
2023-01-23T05:26:18.023Z,5.36
2023-01-23T05:28:45.778Z,5.01
2023-01-23T05:31:14.887Z,5.34
2023-01-23T05:33:42.647Z,5.22
2023-01-23T05:36:10.535Z,4.47
2023-01-23T05:38:38.264Z,4.97
2023-01-23T05:41:06.216Z,4.84
2023-01-23T05:43:33.963Z,4.60
2023-01-23T05:46:02.006Z,4.71
2023-01-23T05:48:31.201Z,4.73
2023-01-23T05:50:58.896Z,5.34
2023-01-23T05:53:26.623Z,5.41
2023-01-23T05:55:54.289Z,5.24
2023-01-23T05:58:23.125Z,5.34
2023-01-23T06:00:50.818Z,4.76
2023-01-23T06:03:18.537Z,5.29
2023-01-23T06:05:47.586Z,5.73
2023-01-23T06:08:15.255Z,5.25
2023-01-23T06:10:43.486Z,5.05
2023-01-23T06:13:11.220Z,4.85
2023-01-23T06:15:38.903Z,4.79
2023-01-23T06:18:06.601Z,4.34
2023-01-23T06:20:34.230Z,4.83
2023-01-23T06:23:03.275Z,5.26
2023-01-23T06:25:30.993Z,4.89
2023-01-23T06:27:58.759Z,4.88
2023-01-23T06:30:26.486Z,5.01
2023-01-23T06:32:54.152Z,4.77
2023-01-23T06:35:22.123Z,4.84
2023-01-23T06:37:50.251Z,4.87
2023-01-23T06:40:20.260Z,5.22
2023-01-23T06:42:48.149Z,4.55
2023-01-23T06:45:15.839Z,4.72
2023-01-23T06:47:43.569Z,5.16
2023-01-23T06:50:11.870Z,5.14
2023-01-23T06:52:39.546Z,4.75
2023-01-23T06:55:07.882Z,5.17
2023-01-23T06:57:37.028Z,4.30
2023-01-23T07:00:06.331Z,4.49
2023-01-23T07:02:34.072Z,4.64
2023-01-23T07:05:02.169Z,4.94
2023-01-23T07:07:29.794Z,4.57
2023-01-23T07:09:57.446Z,4.89
2023-01-23T07:12:25.154Z,4.47
2023-01-23T07:14:54.199Z,4.36
2023-01-23T07:17:21.913Z,4.82
2023-01-23T07:19:49.768Z,4.37
2023-01-23T07:22:18.556Z,5.05
2023-01-23T07:24:46.254Z,5.16
2023-01-23T07:27:14.290Z,4.73
2023-01-23T07:29:42.031Z,4.56
2023-01-23T07:32:11.417Z,5.06
2023-01-23T07:34:39.122Z,5.23
2023-01-23T07:37:06.996Z,4.49
2023-01-23T07:39:34.688Z,5.21
2023-01-23T07:42:02.327Z,5.16
2023-01-23T07:44:30.050Z,4.41
2023-01-23T07:46:57.744Z,4.95
2023-01-23T07:49:26.816Z,5.45
2023-01-23T07:51:54.434Z,5.02
2023-01-23T07:54:22.160Z,5.12
2023-01-23T07:56:50.946Z,5.36
2023-01-23T07:59:18.765Z,4.95
2023-01-23T08:01:46.424Z,5.44
2023-01-23T08:04:14.217Z,5.14
2023-01-23T08:06:43.326Z,5.37
2023-01-23T08:09:11.079Z,5.62
2023-01-23T08:11:38.792Z,5.87
2023-01-23T08:14:06.588Z,5.78
2023-01-23T08:16:34.318Z,5.99
2023-01-23T08:19:02.022Z,5.61
2023-01-23T08:21:29.697Z,5.39
2023-01-23T08:23:58.685Z,5.52
2023-01-23T08:26:26.314Z,5.36
2023-01-23T08:28:54.199Z,5.20
2023-01-23T08:31:22.048Z,5.38
2023-01-23T08:33:49.848Z,6.03
2023-01-23T08:36:17.497Z,5.53
2023-01-23T08:38:45.153Z,5.73
2023-01-23T08:41:14.210Z,5.43
2023-01-23T08:43:42.430Z,5.34
2023-01-23T08:46:11.169Z,5.48
2023-01-23T08:48:38.870Z,5.69
2023-01-23T08:51:08.670Z,5.66
2023-01-23T08:53:36.477Z,5.79
2023-01-23T08:56:06.345Z,5.98
2023-01-23T08:58:35.881Z,5.88
2023-01-23T09:01:03.650Z,5.33
2023-01-23T09:03:31.402Z,5.30
2023-01-23T09:06:01.884Z,5.50
2023-01-23T09:08:29.570Z,5.86
2023-01-23T09:11:01.034Z,5.54
2023-01-23T09:13:28.738Z,5.56
2023-01-23T09:15:57.854Z,5.96
2023-01-23T09:18:25.938Z,6.42
2023-01-23T09:20:53.726Z,6.04
2023-01-23T09:23:21.700Z,6.13
2023-01-23T09:25:49.349Z,6.02
2023-01-23T09:28:17.031Z,6.00
2023-01-23T09:30:44.804Z,5.94
2023-01-23T09:33:13.842Z,5.40
2023-01-23T09:35:41.562Z,5.52
2023-01-23T09:38:09.205Z,5.88
2023-01-23T09:40:49.695Z,6.32
2023-01-23T09:43:21.675Z,6.87
2023-01-23T09:45:57.679Z,6.92
2023-01-23T09:48:29.496Z,7.21
2023-01-23T09:51:00.713Z,6.58
2023-01-23T09:53:35.316Z,6.59
2023-01-23T09:56:08.338Z,6.60
2023-01-23T09:58:39.222Z,7.57
2023-01-23T10:01:06.909Z,6.98
2023-01-23T10:03:36.261Z,6.93
2023-01-23T10:06:16.428Z,6.74
2023-01-23T10:08:51.342Z,6.65
2023-01-23T10:11:24.853Z,7.39
2023-01-23T10:14:03.400Z,6.25
2023-01-23T10:17:07.435Z,6.45
2023-01-23T10:19:46.962Z,6.17
2023-01-23T10:22:28.942Z,6.45
2023-01-23T10:24:58.342Z,6.21
2023-01-23T10:27:33.826Z,6.68
2023-01-23T10:30:06.167Z,5.69
2023-01-23T10:32:43.770Z,6.61
2023-01-23T10:35:15.072Z,6.67
2023-01-23T10:37:46.210Z,5.96
2023-01-23T10:40:15.780Z,6.50
2023-01-23T10:42:43.476Z,6.49
2023-01-23T10:45:18.463Z,6.53
2023-01-23T10:47:51.981Z,6.29
2023-01-23T10:50:35.741Z,6.68
2023-01-23T10:53:08.876Z,6.27
2023-01-23T10:55:36.903Z,6.80
2023-01-23T10:58:06.769Z,7.75
2023-01-23T11:00:36.902Z,7.44
2023-01-23T11:03:28.626Z,7.38
2023-01-23T11:06:02.675Z,6.92
2023-01-23T11:08:32.518Z,6.93
2023-01-23T11:11:20.354Z,6.81
2023-01-23T11:13:49.272Z,7.10
2023-01-23T11:16:18.854Z,6.41
2023-01-23T11:18:51.257Z,6.30
2023-01-23T11:21:23.976Z,6.58
2023-01-23T11:24:09.159Z,7.50
2023-01-23T11:26:38.651Z,7.95
2023-01-23T11:29:22.093Z,7.42
2023-01-23T11:31:51.086Z,7.70
2023-01-23T11:34:21.310Z,7.22
2023-01-23T11:36:54.519Z,6.61
2023-01-23T11:39:34.781Z,7.03
2023-01-23T11:42:02.606Z,7.56
2023-01-23T11:44:38.065Z,6.59
2023-01-23T11:47:43.990Z,6.53
2023-01-23T11:50:46.594Z,7.00
2023-01-23T11:53:36.980Z,6.70
2023-01-23T11:56:37.020Z,6.58
2023-01-23T11:59:34.527Z,6.10
2023-01-23T12:02:17.715Z,6.84
2023-01-23T12:05:02.845Z,7.63
2023-01-23T12:07:37.035Z,7.95
2023-01-23T12:10:12.687Z,7.26
2023-01-23T12:12:52.134Z,7.17
2023-01-23T12:15:28.488Z,7.60
2023-01-23T12:18:02.849Z,7.50
2023-01-23T12:20:42.747Z,7.27
2023-01-23T12:23:21.245Z,6.89
2023-01-23T12:25:56.466Z,7.21
2023-01-23T12:28:32.234Z,7.60
2023-01-23T12:31:15.644Z,7.19
2023-01-23T12:33:53.918Z,6.55
2023-01-23T12:36:29.689Z,7.18
2023-01-23T12:39:05.967Z,7.29
2023-01-23T12:41:37.998Z,7.76
2023-01-23T12:44:13.613Z,7.16
2023-01-23T12:46:46.028Z,6.70
2023-01-23T12:49:25.280Z,7.04
2023-01-23T12:51:58.882Z,6.78
2023-01-23T12:54:34.777Z,7.30
2023-01-23T12:57:05.624Z,6.59
2023-01-23T12:59:42.763Z,6.78
2023-01-23T13:02:15.668Z,6.28
2023-01-23T13:05:00.492Z,6.49
2023-01-23T13:07:37.973Z,6.74
2023-01-23T13:10:18.345Z,7.33
2023-01-23T13:12:47.795Z,7.26
2023-01-23T13:15:38.869Z,6.97
2023-01-23T13:18:22.408Z,7.23
2023-01-23T13:21:14.946Z,6.58
2023-01-23T13:23:42.686Z,6.62
2023-01-23T13:26:31.103Z,7.03
2023-01-23T13:29:03.661Z,6.83
2023-01-23T13:31:41.098Z,6.71
2023-01-23T13:34:38.046Z,6.93
2023-01-23T13:37:33.635Z,6.53
2023-01-23T13:40:15.078Z,7.12
2023-01-23T13:42:42.822Z,6.89
2023-01-23T13:45:33.165Z,5.85
2023-01-23T14:25:20.175Z,6.65
2023-01-23T14:27:53.600Z,6.43
2023-01-23T14:30:24.723Z,6.54
2023-01-23T14:32:52.441Z,7.05
2023-01-23T14:35:25.726Z,6.81
2023-01-23T14:37:55.887Z,7.19
2023-01-23T14:40:28.049Z,6.68
2023-01-23T14:43:01.229Z,6.70
2023-01-23T14:45:32.910Z,6.91
2023-01-23T14:48:08.739Z,7.21
2023-01-23T14:50:38.083Z,7.14
2023-01-23T14:53:07.429Z,6.94
2023-01-23T14:55:37.968Z,6.64
2023-01-23T14:58:07.423Z,6.21
2023-01-23T15:00:35.876Z,6.26
2023-01-23T15:03:05.259Z,6.84
2023-01-23T15:05:33.568Z,6.66
2023-01-23T15:08:05.972Z,7.07
2023-01-23T15:10:37.093Z,7.10
2023-01-23T15:13:06.541Z,6.87
2023-01-23T15:15:35.599Z,7.18
2023-01-23T15:18:05.721Z,7.11
2023-01-23T15:20:38.325Z,6.92
2023-01-23T15:23:28.169Z,6.70
2023-01-23T15:26:23.811Z,7.32
2023-01-23T15:28:53.390Z,6.57
2023-01-23T15:31:42.674Z,7.31
2023-01-23T15:34:21.339Z,6.36
2023-01-23T15:36:51.417Z,6.36
2023-01-23T15:39:23.567Z,6.08
2023-01-23T15:41:53.011Z,6.88
2023-01-23T15:44:22.724Z,6.89
2023-01-23T15:46:50.747Z,6.65
2023-01-23T15:49:25.341Z,6.68
2023-01-23T15:51:56.504Z,6.74
2023-01-23T15:54:29.456Z,6.26
2023-01-23T15:57:07.083Z,6.46
2023-01-23T15:59:36.792Z,6.15
2023-01-23T16:02:04.766Z,6.89
2023-01-23T16:04:32.504Z,6.70
2023-01-23T16:07:01.097Z,6.94
2023-01-23T16:09:32.726Z,7.04
2023-01-23T16:12:00.995Z,7.25
2023-01-23T16:14:29.261Z,7.36
2023-01-23T16:17:04.701Z,7.21
2023-01-23T16:19:39.435Z,7.39
2023-01-23T16:22:07.096Z,7.34
2023-01-23T16:24:38.250Z,7.26
2023-01-23T16:27:06.973Z,6.87
2023-01-23T16:29:35.541Z,6.41
2023-01-23T16:32:04.428Z,6.88
2023-01-23T16:34:32.141Z,6.73
2023-01-23T16:37:00.812Z,7.18
2023-01-23T16:39:31.196Z,7.06
2023-01-23T16:42:00.651Z,7.15
2023-01-23T16:44:28.307Z,7.45
2023-01-23T16:46:55.961Z,7.20
2023-01-23T16:49:23.729Z,6.68
2023-01-23T16:51:58.052Z,6.34
2023-01-23T16:54:26.186Z,6.39
2023-01-23T16:56:54.874Z,6.23
2023-01-23T16:59:29.349Z,6.64
2023-01-23T17:01:57.074Z,6.16
2023-01-23T17:04:24.919Z,6.64
2023-01-23T17:06:52.650Z,6.60
2023-01-23T17:09:20.348Z,7.16
2023-01-23T17:11:50.197Z,6.62
2023-01-23T17:14:20.652Z,6.38
2023-01-23T17:16:50.778Z,6.42
2023-01-23T17:19:22.957Z,6.42
2023-01-23T17:21:51.877Z,6.46
2023-01-23T17:24:19.965Z,6.46
2023-01-23T17:26:47.750Z,6.15
2023-01-23T17:29:16.092Z,6.64
2023-01-23T17:31:44.058Z,6.55
2023-01-23T17:34:20.030Z,6.61
2023-01-23T17:36:47.760Z,6.58
2023-01-23T17:39:15.551Z,6.10
2023-01-23T17:41:43.185Z,6.64
2023-01-23T17:44:10.902Z,6.49
2023-01-23T17:46:39.528Z,6.06
2023-01-23T17:49:22.119Z,6.52
2023-01-23T17:51:49.799Z,6.75
2023-01-23T17:54:20.593Z,6.66
2023-01-23T17:56:48.320Z,6.00
2023-01-23T17:59:15.958Z,6.86
2023-01-23T18:01:43.680Z,6.44
2023-01-23T18:04:16.596Z,5.90
2023-01-23T18:06:45.741Z,6.36
2023-01-23T18:09:14.098Z,6.35
2023-01-23T18:11:49.734Z,6.53
2023-01-23T18:14:33.131Z,6.26
2023-01-23T18:17:01.343Z,6.85
2023-01-23T18:19:30.234Z,7.13
2023-01-23T18:21:59.857Z,7.20
2023-01-23T18:24:30.178Z,6.57
2023-01-23T18:27:02.318Z,6.53
2023-01-23T18:29:40.756Z,5.91
2023-01-23T18:32:24.693Z,6.42
2023-01-23T18:34:56.685Z,5.83
2023-01-23T18:37:31.177Z,6.13
2023-01-23T18:40:02.669Z,6.78
2023-01-23T18:42:34.712Z,5.51
2023-01-23T18:45:05.701Z,6.03
2023-01-23T18:47:33.679Z,6.77
2023-01-23T18:50:01.784Z,6.42
2023-01-23T18:52:43.024Z,5.87
2023-01-23T18:55:17.089Z,6.04
2023-01-23T18:57:54.275Z,6.83
2023-01-23T19:00:26.445Z,6.32
2023-01-23T19:02:57.808Z,6.24
2023-01-23T19:05:31.101Z,6.31
2023-01-23T19:08:01.332Z,6.79
2023-01-23T19:10:40.173Z,6.62
2023-01-23T19:13:20.180Z,6.49
2023-01-23T19:15:55.480Z,5.79
2023-01-23T19:18:43.831Z,5.65
2023-01-23T19:21:23.430Z,6.09
2023-01-23T19:23:57.821Z,5.74
2023-01-23T19:26:27.701Z,5.74
2023-01-23T19:28:56.060Z,6.15
2023-01-23T19:31:25.367Z,6.38
2023-01-23T19:33:53.141Z,6.42
2023-01-23T19:36:21.684Z,5.98
2023-01-23T19:38:49.655Z,5.84
2023-01-23T19:41:21.003Z,5.45
2023-01-23T19:43:50.451Z,5.55
2023-01-23T19:46:18.584Z,6.43
2023-01-23T19:48:46.305Z,6.34
2023-01-23T19:51:14.956Z,5.79
2023-01-23T19:53:42.670Z,5.51
2023-01-23T19:56:12.238Z,5.98
2023-01-23T19:58:41.582Z,6.11
2023-01-23T20:01:18.326Z,5.68
2023-01-23T20:03:46.043Z,6.55
2023-01-23T20:06:13.703Z,5.63
2023-01-23T20:08:41.427Z,6.38
2023-01-23T20:11:10.948Z,5.79
2023-01-23T20:13:38.775Z,5.93
2023-01-23T20:16:15.381Z,6.23
2023-01-23T20:18:43.223Z,5.70
2023-01-23T20:21:11.226Z,5.72
2023-01-23T20:23:38.928Z,5.79
2023-01-23T20:26:06.833Z,5.98
2023-01-23T20:28:34.485Z,5.42
2023-01-23T20:31:05.098Z,5.56
2023-01-23T20:33:34.626Z,5.38
2023-01-23T20:36:02.325Z,6.10
2023-01-23T20:38:30.007Z,5.79
2023-01-23T20:41:03.748Z,5.73
2023-01-23T20:43:31.438Z,5.27
2023-01-23T20:45:59.178Z,6.08
2023-01-23T20:48:26.914Z,5.61
2023-01-23T20:50:57.586Z,5.36
2023-01-23T20:53:30.362Z,6.04
2023-01-23T20:55:59.463Z,5.91
2023-01-23T20:58:45.181Z,5.41
2023-01-23T21:01:13.673Z,6.02
2023-01-23T21:03:42.148Z,6.01
2023-01-23T21:06:11.432Z,6.26
2023-01-23T21:08:39.062Z,6.17
2023-01-23T21:11:07.088Z,6.21
2023-01-23T21:13:34.583Z,6.19
2023-01-23T21:16:02.654Z,6.22
2023-01-23T21:18:30.241Z,6.34
2023-01-23T21:21:02.490Z,6.09
2023-01-23T21:23:31.394Z,6.48
2023-01-23T21:25:59.153Z,6.30
2023-01-23T21:28:26.734Z,6.09
2023-01-23T21:30:54.235Z,5.80
2023-01-23T21:33:21.894Z,5.56
2023-01-23T21:35:50.157Z,5.21
2023-01-23T21:38:17.693Z,5.50
2023-01-23T21:40:46.557Z,5.76
2023-01-23T21:43:14.614Z,5.80
2023-01-23T21:45:42.389Z,5.72
2023-01-23T21:48:09.820Z,5.50
2023-01-23T21:50:37.369Z,5.71
2023-01-23T21:53:04.897Z,5.95
2023-01-23T21:55:32.382Z,5.19
2023-01-23T21:58:01.220Z,5.29
2023-01-23T22:00:46.113Z,6.34
2023-01-23T22:03:13.596Z,5.41
2023-01-23T22:05:41.073Z,5.22
2023-01-23T22:08:08.562Z,5.37
2023-01-23T22:10:36.447Z,5.53
2023-01-23T22:13:05.319Z,5.52
2023-01-23T22:15:32.910Z,5.34
2023-01-23T22:18:00.456Z,5.46
2023-01-23T22:20:27.951Z,5.63
2023-01-23T22:22:55.446Z,5.91
2023-01-23T22:25:23.331Z,5.57
2023-01-23T22:27:50.985Z,5.47
2023-01-23T22:30:20.054Z,5.54
2023-01-23T22:32:47.554Z,5.22
2023-01-23T22:35:15.104Z,5.51
2023-01-23T22:37:44.146Z,5.50
2023-01-23T22:40:12.195Z,5.78
2023-01-23T22:42:39.814Z,5.44
2023-01-23T22:45:09.766Z,5.80
2023-01-23T22:47:38.765Z,5.75
2023-01-23T22:50:06.581Z,5.57
2023-01-23T22:52:35.024Z,5.62
2023-01-23T22:55:02.816Z,6.26
2023-01-23T22:57:30.290Z,5.58
2023-01-23T22:59:57.764Z,5.18
2023-01-23T23:02:25.290Z,6.08
2023-01-23T23:04:54.143Z,5.82
2023-01-23T23:07:21.654Z,6.05
2023-01-23T23:09:49.171Z,5.24
2023-01-23T23:12:16.657Z,5.91
2023-01-23T23:14:44.186Z,5.65
2023-01-23T23:17:11.664Z,6.04
2023-01-23T23:19:39.691Z,6.25
2023-01-23T23:22:08.497Z,6.03
2023-01-23T23:24:36.004Z,5.82
2023-01-23T23:27:03.547Z,6.35
2023-01-23T23:29:31.074Z,5.76
2023-01-23T23:31:58.668Z,5.90
2023-01-23T23:34:26.243Z,6.20
2023-01-23T23:36:53.734Z,6.19
2023-01-23T23:39:22.629Z,5.94
2023-01-23T23:41:50.106Z,5.80
2023-01-23T23:44:17.595Z,5.67
2023-01-23T23:46:45.122Z,5.79
2023-01-23T23:49:12.568Z,5.38
2023-01-23T23:51:40.051Z,5.43
2023-01-23T23:54:07.516Z,5.62
2023-01-23T23:56:36.319Z,5.50
2023-01-23T23:59:03.827Z,5.40
